Impacts TAF Board
For situational awareness. Not to be used for flight planning purposes.
IDs:

KMGM - Montgomery/Dannely F, AL, US

Issued at 2333 UTC 17 Oct 2018
Updated at 0540 UTC 18 Oct 2018
Potential Impact None Slight Moderate High
Time0453Z 18/06Z 18/07Z 18/08Z 18/09Z 18/10Z 18/11Z 18/12Z 18/13Z 18/14Z 18/15Z 18/16Z 18/17Z 18/18Z>>
Type OBS PRVL PRVL PRVL PRVL PRVL PRVL PRVL PRVL PRVL PRVL PRVL PRVL PRVL
VIS 10 >6 >6 >6 >6 >6 >6 >6 >6 >6 >6 >6 >6 >6
CIG -- 100 100 100 100 100 100 100 100 100 100 100 100 100
Cover CLR BKN BKN BKN BKN BKN BKN BKN BKN BKN BKN BKN BKN BKN
FltCat VFR VFR VFR VFR VFR VFR VFR VFR VFR VFR VFR VFR VFR VFR
WX -- -- -- -- -- -- -- -- -- -- -- -- -- --
WDir 350 10 10 10 10 10 10 10 10 10 40 40 40 40
WSpd 5 7 7 7 7 7 7 7 7 7 7 7 7 7
WGst -- -- -- -- -- -- -- -- -- -- -- -- -- --
Raw TAF
KMGM 172333Z 1800/1824 01009KT P6SM OVC050
  FM180300 01007KT P6SM BKN100
  FM181500 04007KT P6SM BKN100


Raw METAR
KMGM 180453Z AUTO 35005KT 10SM CLR 17/14 A3028 RMK AO2 SLP251 T01720139 TSNO
KMGM 180353Z AUTO 34005KT 10SM CLR 18/14 A3028 RMK AO2 SLP253 T01780144 TSNO
KMGM 180253Z 35004KT 10SM CLR 18/14 A3028 RMK AO2 SLP252 T01830144 51016

METAR Board
Radar Display
Forecast Discussion
For situational awareness. Not to be used for flight planning purposes.